Audubon, Iowa
Current Conditions -  °F | °C
As of 12:35 PM on Thursday 30 Oct 2014 (Local Time) from KADU Reporting Station
Clear Clear  
Wind Chill: 57°   Ceiling: Unl
Heat Index: 57°   Visibility: 10mi
Dew Point: 36°   Wind: 10mph
Humidity: 44%   Direction: 330°NNW
Pressure: 30.04"   Gusts: NA
Location:  41.72°N, 94.93°W
Report Text: KADU 301735Z AUTO 33009KT 300V360 10SM CLR 14/02 A3004 RMK AO2
Loading
Personal Weather Stations






























Interactive Weather Map
Tropical Storm Tracking
New forecast layout! Learn more

10-Day Weather Forecast

Advertisements
Track Severe Weather on mobile